West Camp, New York
Current Conditions -  °F | °C
As of 3:53 PM on Tuesday 21 Oct 2014 (Local Time) from KPOU Reporting Station
Overcast Overcast  
Wind Chill: 56°   Ceiling: 9000
Heat Index: 56°   Visibility: 10mi
Dew Point: 50°   Wind: 7mph
Humidity: 80%   Direction: 10°N
Pressure: 29.87"   Gusts: NA
Location:  42.12°N, 73.94°W
Report Text: KPOU 211953Z 01006KT 10SM FEW046 SCT070 OVC090 13/10 A2987 RMK AO2 SLP112 T01330100
Loading
Personal Weather Stations






























Interactive Weather Map
Tropical Storm Tracking
New forecast layout! Learn more

10-Day Weather Forecast

Advertisements
Track Severe Weather on mobile